createdAt,value
2017-10-09T00:00:50.133Z,47.24
2017-10-09T00:01:59.461Z,47.34
2017-10-09T00:03:08.161Z,47.53
2017-10-09T00:04:17.816Z,47.34
2017-10-09T00:05:27.144Z,47.34
2017-10-09T00:06:35.841Z,47.53
2017-10-09T00:07:45.501Z,47.72
2017-10-09T00:08:54.517Z,47.72
2017-10-09T00:10:03.849Z,47.63
2017-10-09T00:11:13.177Z,47.72
2017-10-09T00:12:22.189Z,47.82
2017-10-09T00:13:31.208Z,47.82
2017-10-09T00:14:39.900Z,47.14
2017-10-09T00:15:49.234Z,47.82
2017-10-09T00:16:58.567Z,47.72
2017-10-09T00:18:07.618Z,47.14
2017-10-09T00:19:16.286Z,47.24
2017-10-09T00:20:24.981Z,47.14
2017-10-09T00:21:33.673Z,47.44
2017-10-09T00:22:42.695Z,47.63
2017-10-09T00:23:51.390Z,47.05
2017-10-09T00:25:00.724Z,47.14
2017-10-09T00:26:09.423Z,47.24
2017-10-09T00:27:19.087Z,47.14
2017-10-09T00:28:28.105Z,47.24
2017-10-09T00:29:37.118Z,47.05
2017-10-09T00:30:45.810Z,47.05
2017-10-09T00:31:54.504Z,47.05
2017-10-09T00:33:03.516Z,47.24
2017-10-09T00:34:12.526Z,47.05
2017-10-09T00:35:21.858Z,47.05
2017-10-09T00:36:30.873Z,46.95
2017-10-09T00:37:39.889Z,47.53
2017-10-09T00:38:49.218Z,47.14
2017-10-09T00:39:58.868Z,47.14
2017-10-09T00:41:07.565Z,47.05
2017-10-09T00:42:16.898Z,47.22
2017-10-09T00:43:25.595Z,47.03
2017-10-09T00:44:34.291Z,47.24
2017-10-09T00:45:43.314Z,47.14
2017-10-09T00:46:52.654Z,47.24
2017-10-09T00:48:01.348Z,47.14
2017-10-09T00:49:10.048Z,47.14
2017-10-09T00:50:19.381Z,47.14
2017-10-09T00:51:28.397Z,47.34
2017-10-09T00:52:37.094Z,47.14
2017-10-09T00:53:46.432Z,47.12
2017-10-09T00:54:55.126Z,47.12
2017-10-09T00:56:04.785Z,47.05
2017-10-09T00:57:13.479Z,47.05
2017-10-09T00:58:22.494Z,46.93
2017-10-09T00:59:31.823Z,46.73
2017-10-09T01:00:40.840Z,46.73
2017-10-09T01:01:49.543Z,46.83
2017-10-09T01:02:58.872Z,47.22
2017-10-09T01:04:07.889Z,47.14
2017-10-09T01:05:16.905Z,47.03
2017-10-09T01:06:26.236Z,47.12
2017-10-09T01:07:34.932Z,47.12
2017-10-09T01:08:43.945Z,46.45
2017-10-09T01:09:52.958Z,46.35
2017-10-09T01:11:01.971Z,46.64
2017-10-09T01:12:10.981Z,46.64
2017-10-09T01:13:19.998Z,46.73
2017-10-09T01:14:29.335Z,46.83
2017-10-09T01:15:38.993Z,46.55
2017-10-09T01:16:47.685Z,46.83
2017-10-09T01:17:56.699Z,46.93
2017-10-09T01:19:06.032Z,46.83
2017-10-09T01:20:15.042Z,46.73
2017-10-09T01:21:24.692Z,46.64
2017-10-09T01:22:34.022Z,46.83
2017-10-09T01:23:43.353Z,47.03
2017-10-09T01:24:52.363Z,46.83
2017-10-09T01:26:01.375Z,47.03
2017-10-09T01:27:10.388Z,46.55
2017-10-09T01:28:19.411Z,46.25
2017-10-09T01:29:28.431Z,46.45
2017-10-09T01:30:37.768Z,46.15
2017-10-09T01:31:46.791Z,46.35
2017-10-09T01:32:55.812Z,46.45
2017-10-09T01:34:05.147Z,46.73
2017-10-09T01:35:14.155Z,46.45
2017-10-09T01:36:23.166Z,46.45
2017-10-09T01:37:32.498Z,46.15
2017-10-09T01:38:41.510Z,46.06
2017-10-09T01:39:50.840Z,46.55
2017-10-09T01:40:59.855Z,46.35
2017-10-09T01:42:08.546Z,46.45
2017-10-09T01:43:17.878Z,46.55
2017-10-09T01:44:26.900Z,45.97
2017-10-09T01:45:36.244Z,46.25
2017-10-09T01:46:45.578Z,46.73
2017-10-09T01:47:54.273Z,46.45
2017-10-09T01:49:02.967Z,46.35
2017-10-09T01:50:11.666Z,46.06
2017-10-09T01:51:20.686Z,46.06
2017-10-09T01:52:29.380Z,46.25
2017-10-09T01:53:38.714Z,46.25
2017-10-09T01:54:47.406Z,46.35
2017-10-09T01:55:56.420Z,46.45
2017-10-09T01:57:05.752Z,46.35
2017-10-09T01:58:15.082Z,46.25
2017-10-09T01:59:23.776Z,46.15
2017-10-09T02:00:32.787Z,46.25
2017-10-09T02:01:42.117Z,46.35
2017-10-09T02:02:50.810Z,46.35
2017-10-09T02:03:59.826Z,46.06
2017-10-09T02:05:08.524Z,46.25
2017-10-09T02:06:17.538Z,46.15
2017-10-09T02:07:26.552Z,46.15
2017-10-09T02:08:35.919Z,46.15
2017-10-09T02:09:44.586Z,46.15
2017-10-09T02:10:53.599Z,46.15
2017-10-09T02:12:02.292Z,46.25
2017-10-09T02:13:11.306Z,46.06
2017-10-09T02:14:20.640Z,45.97
2017-10-09T02:15:29.656Z,45.97
2017-10-09T02:16:38.993Z,46.25
2017-10-09T02:17:48.004Z,45.68
2017-10-09T02:18:57.017Z,45.58
2017-10-09T02:20:06.029Z,45.68
2017-10-09T02:21:15.366Z,45.68
2017-10-09T02:22:24.703Z,45.39
2017-10-09T02:23:33.721Z,45.87
2017-10-09T02:24:42.736Z,45.48
2017-10-09T02:25:51.744Z,45.77
2017-10-09T02:27:00.758Z,45.87
2017-10-09T02:28:10.087Z,45.68
2017-10-09T02:29:19.736Z,45.68
2017-10-09T02:30:28.742Z,45.68
2017-10-09T02:31:37.759Z,45.58
2017-10-09T02:32:47.099Z,45.68
2017-10-09T02:33:56.121Z,45.68
2017-10-09T02:35:05.132Z,45.58
2017-10-09T02:36:14.464Z,45.87
2017-10-09T02:37:23.475Z,45.77
2017-10-09T02:38:32.812Z,45.68
2017-10-09T02:39:42.148Z,45.68
2017-10-09T02:40:51.161Z,45.68
2017-10-09T02:42:00.494Z,45.58
2017-10-09T02:43:09.187Z,45.58
2017-10-09T02:44:18.200Z,45.48
2017-10-09T02:45:26.890Z,45.48
2017-10-09T02:46:36.239Z,45.77
2017-10-09T02:47:44.942Z,46.06
2017-10-09T02:48:54.278Z,46.06
2017-10-09T02:50:03.295Z,46.25
2017-10-09T02:51:11.987Z,46.25
2017-10-09T02:52:20.681Z,45.87
2017-10-09T02:53:30.336Z,45.97
2017-10-09T02:54:39.352Z,46.25
2017-10-09T02:55:48.683Z,45.87
2017-10-09T02:56:58.335Z,46.25
2017-10-09T02:58:07.670Z,46.25
2017-10-09T02:59:16.682Z,46.25
2017-10-09T03:00:25.376Z,46.15
2017-10-09T03:01:34.066Z,46.15
2017-10-09T03:02:43.405Z,46.25
2017-10-09T03:03:53.055Z,46.15
2017-10-09T03:05:02.385Z,46.06
2017-10-09T03:06:11.721Z,45.97
2017-10-09T03:07:20.420Z,45.97
2017-10-09T03:08:29.436Z,46.06
2017-10-09T03:09:38.450Z,46.15
2017-10-09T03:10:47.140Z,46.15
2017-10-09T03:11:55.837Z,46.06
2017-10-09T03:13:04.852Z,46.06
2017-10-09T03:14:13.867Z,46.15
2017-10-09T03:15:23.200Z,46.25
2017-10-09T03:16:33.172Z,46.06
2017-10-09T03:17:41.865Z,46.15
2017-10-09T03:18:50.558Z,46.06
2017-10-09T03:19:59.573Z,46.15
2017-10-09T03:21:08.585Z,46.06
2017-10-09T03:22:17.593Z,46.06
2017-10-09T03:23:27.247Z,46.06
2017-10-09T03:24:36.267Z,46.06
2017-10-09T03:25:45.916Z,46.06
2017-10-09T03:26:54.928Z,46.14
2017-10-09T03:28:04.580Z,46.15
2017-10-09T03:29:13.602Z,46.15
2017-10-09T03:30:22.941Z,46.15
2017-10-09T03:31:31.958Z,46.06
2017-10-09T03:32:41.291Z,46.15
2017-10-09T03:33:50.303Z,46.35
2017-10-09T03:34:59.631Z,46.06
2017-10-09T03:36:08.643Z,46.06
2017-10-09T03:37:17.334Z,46.06
2017-10-09T03:38:26.354Z,46.06
2017-10-09T03:39:35.687Z,46.14
2017-10-09T03:40:44.698Z,46.15
2017-10-09T03:41:53.709Z,45.97
2017-10-09T03:43:02.728Z,46.06
2017-10-09T03:44:12.706Z,46.25
2017-10-09T03:45:21.719Z,46.14
2017-10-09T03:46:30.731Z,46.15
2017-10-09T03:47:39.425Z,45.97
2017-10-09T03:48:48.754Z,46.06
2017-10-09T03:49:57.768Z,46.23
2017-10-09T03:51:06.466Z,45.87
2017-10-09T03:52:15.477Z,45.97
2017-10-09T03:53:24.171Z,46.25
2017-10-09T03:54:33.184Z,46.25
2017-10-09T03:55:42.195Z,46.15
2017-10-09T03:56:50.886Z,45.87
2017-10-09T03:57:59.585Z,46.15
2017-10-09T03:59:08.919Z,46.25
2017-10-09T04:00:18.573Z,45.94
2017-10-09T04:01:28.227Z,46.04
2017-10-09T04:02:37.241Z,46.23
2017-10-09T04:03:46.574Z,46.15
2017-10-09T04:04:55.265Z,45.87
2017-10-09T04:06:04.281Z,45.97
2017-10-09T04:07:13.294Z,46.25
2017-10-09T04:08:22.008Z,46.23
2017-10-09T04:09:31.038Z,46.14
2017-10-09T04:10:39.730Z,46.04
2017-10-09T04:11:49.378Z,45.97
2017-10-09T04:12:58.395Z,46.25
2017-10-09T04:14:07.417Z,45.97
2017-10-09T04:15:17.069Z,46.23
2017-10-09T04:16:25.764Z,45.84
2017-10-09T04:17:34.455Z,46.06
2017-10-09T04:18:43.791Z,45.84
2017-10-09T04:19:52.813Z,45.77
2017-10-09T04:21:02.147Z,46.06
2017-10-09T04:22:11.485Z,45.36
2017-10-09T04:23:21.142Z,46.23
2017-10-09T04:24:30.157Z,45.75
2017-10-09T04:25:38.853Z,45.84
2017-10-09T04:26:48.185Z,45.75
2017-10-09T04:27:57.517Z,45.56
2017-10-09T04:29:06.852Z,45.56
2017-10-09T04:30:15.546Z,45.56
2017-10-09T04:31:24.882Z,45.65
2017-10-09T04:32:34.215Z,45.58
2017-10-09T04:33:43.227Z,45.56
2017-10-09T04:34:51.918Z,45.56
2017-10-09T04:36:01.573Z,45.58
2017-10-09T04:37:10.585Z,45.58
2017-10-09T04:38:19.278Z,45.56
2017-10-09T04:39:28.619Z,45.56
2017-10-09T04:40:38.280Z,45.77
2017-10-09T04:41:47.293Z,45.58
2017-10-09T04:42:55.992Z,45.58
2017-10-09T04:44:05.324Z,45.77
2017-10-09T04:45:14.660Z,45.65
2017-10-09T04:46:24.319Z,45.68
2017-10-09T04:47:33.973Z,45.58
2017-10-09T04:48:43.623Z,45.58
2017-10-09T04:49:52.958Z,45.68
2017-10-09T04:51:01.653Z,45.58
2017-10-09T04:52:10.351Z,45.68
2017-10-09T04:53:20.007Z,45.56
2017-10-09T04:54:29.024Z,45.77
2017-10-09T04:55:38.354Z,45.58
2017-10-09T04:56:47.047Z,45.48
2017-10-09T04:57:55.742Z,45.48
2017-10-09T04:59:05.075Z,45.48
2017-10-09T05:00:13.770Z,45.48
2017-10-09T05:01:23.424Z,45.77
2017-10-09T05:02:32.454Z,45.77
2017-10-09T05:03:41.150Z,45.77
2017-10-09T05:04:50.480Z,45.29
2017-10-09T05:05:59.811Z,45.39
2017-10-09T05:07:08.505Z,45.68
2017-10-09T05:08:17.523Z,45.87
2017-10-09T05:09:26.858Z,45.48
2017-10-09T05:10:35.872Z,45.87
2017-10-09T05:11:44.889Z,45.77
2017-10-09T05:12:53.900Z,45.87
2017-10-09T05:14:03.236Z,45.29
2017-10-09T05:15:11.929Z,45.58
2017-10-09T05:16:21.265Z,45.48
2017-10-09T05:17:29.962Z,45.39
2017-10-09T05:18:38.976Z,45.2
2017-10-09T05:19:48.631Z,45.68
2017-10-09T05:20:57.648Z,45.2
2017-10-09T05:22:06.346Z,45.29
2017-10-09T05:23:15.038Z,45.2
2017-10-09T05:24:24.372Z,45.39
2017-10-09T05:25:34.015Z,45.1
2017-10-09T05:26:43.668Z,44.9
2017-10-09T05:27:52.997Z,45.2
2017-10-09T05:29:02.328Z,45.1
2017-10-09T05:30:11.021Z,45.48
2017-10-09T05:31:20.028Z,45.97
2017-10-09T05:32:29.045Z,45.39
2017-10-09T05:33:38.053Z,45.29
2017-10-09T05:34:47.066Z,45.29
2017-10-09T05:35:56.082Z,45.1
2017-10-09T05:37:05.736Z,44.9
2017-10-09T05:38:15.068Z,44.9
2017-10-09T05:39:24.397Z,45.2
2017-10-09T05:40:33.411Z,45
2017-10-09T05:41:42.428Z,44.81
2017-10-09T05:42:51.119Z,45
2017-10-09T05:44:00.774Z,45.1
2017-10-09T05:45:10.113Z,45
2017-10-09T05:46:19.126Z,44.71
2017-10-09T05:47:28.140Z,44.71
2017-10-09T05:48:37.792Z,45.1
2017-10-09T05:49:46.491Z,44.71
2017-10-09T05:50:56.136Z,44.62
2017-10-09T05:52:05.471Z,44.9
2017-10-09T05:53:14.485Z,45
2017-10-09T05:54:23.824Z,44.9
2017-10-09T05:55:32.840Z,45
2017-10-09T05:56:42.178Z,45
2017-10-09T05:57:51.510Z,45.1
2017-10-09T05:59:00.840Z,45.2
2017-10-09T06:00:10.491Z,45.2
2017-10-09T06:01:19.503Z,45.21
2017-10-09T06:02:28.833Z,45.1
2017-10-09T06:03:37.528Z,45.2
2017-10-09T06:04:46.222Z,44.81
2017-10-09T06:05:55.553Z,44.62
2017-10-09T06:07:04.891Z,44.62
2017-10-09T06:08:13.917Z,44.62
2017-10-09T06:09:23.253Z,44.81
2017-10-09T06:10:32.271Z,44.83
2017-10-09T06:11:41.282Z,44.71
2017-10-09T06:12:50.614Z,44.71
2017-10-09T06:13:59.632Z,45
2017-10-09T06:15:09.283Z,44.81
2017-10-09T06:16:17.977Z,44.81
2017-10-09T06:17:26.990Z,44.81
2017-10-09T06:18:36.647Z,44.9
2017-10-09T06:19:46.300Z,44.81
2017-10-09T06:20:55.958Z,44.73
2017-10-09T06:22:05.929Z,44.73
2017-10-09T06:23:14.941Z,45.03
2017-10-09T06:24:24.274Z,45.12
2017-10-09T06:25:32.968Z,45.12
2017-10-09T06:26:41.667Z,45
2017-10-09T06:27:51.007Z,45
2017-10-09T06:29:00.653Z,45.03
2017-10-09T06:30:09.667Z,45.03
2017-10-09T06:31:18.363Z,44.83
2017-10-09T06:32:27.374Z,44.83
2017-10-09T06:33:36.703Z,44.73
2017-10-09T06:34:46.372Z,44.93
2017-10-09T06:35:55.070Z,44.54
2017-10-09T06:37:04.087Z,44.54
2017-10-09T06:38:13.102Z,44.73
2017-10-09T06:39:22.436Z,44.73
2017-10-09T06:40:31.453Z,44.73
2017-10-09T06:41:40.143Z,44.45
2017-10-09T06:42:49.154Z,44.64
2017-10-09T06:43:58.806Z,44.73
2017-10-09T06:45:07.818Z,44.73
2017-10-09T06:46:17.155Z,44.45
2017-10-09T06:47:26.167Z,44.64
2017-10-09T06:48:35.182Z,44.64
2017-10-09T06:49:44.515Z,44.54
2017-10-09T06:50:53.530Z,44.73
2017-10-09T06:52:03.180Z,44.64
2017-10-09T06:53:11.871Z,44.64
2017-10-09T06:54:21.207Z,44.73
2017-10-09T06:55:29.901Z,44.54
2017-10-09T06:56:38.918Z,44.64
2017-10-09T06:57:47.963Z,44.54
2017-10-09T06:58:56.976Z,44.54
2017-10-09T07:00:06.314Z,44.45
2017-10-09T07:01:15.642Z,44.64
2017-10-09T07:02:24.337Z,44.64
2017-10-09T07:03:33.668Z,44.15
2017-10-09T07:04:43.003Z,44.35
2017-10-09T07:05:52.018Z,44.35
2017-10-09T07:07:00.720Z,44.35
2017-10-09T07:08:10.368Z,44.83
2017-10-09T07:09:19.702Z,44.73
2017-10-09T07:10:28.398Z,44.15
2017-10-09T07:11:37.412Z,44.35
2017-10-09T07:12:46.430Z,44.35
2017-10-09T07:13:55.438Z,44.35
2017-10-09T07:15:05.089Z,44.25
2017-10-09T07:16:14.101Z,44.35
2017-10-09T07:17:23.433Z,44.93
2017-10-09T07:18:32.770Z,43.96
2017-10-09T07:19:41.469Z,45.03
2017-10-09T07:20:50.807Z,44.15
2017-10-09T07:21:59.816Z,43.87
2017-10-09T07:23:09.148Z,44.06
2017-10-09T07:24:18.164Z,44.93
2017-10-09T07:25:27.817Z,44.15
2017-10-09T07:26:37.148Z,43.96
2017-10-09T07:27:45.843Z,44.25
2017-10-09T07:28:55.171Z,44.15
2017-10-09T07:30:03.866Z,44.25
2017-10-09T07:31:12.562Z,44.35
2017-10-09T07:32:21.576Z,44.15
2017-10-09T07:33:30.910Z,44.45
2017-10-09T07:34:39.608Z,44.45
2017-10-09T07:35:48.626Z,44.35
2017-10-09T07:36:57.321Z,44.35
2017-10-09T07:38:06.980Z,44.35
2017-10-09T07:39:16.635Z,44.35
2017-10-09T07:40:25.649Z,44.25
2017-10-09T07:41:34.982Z,44.45
2017-10-09T07:42:43.993Z,44.15
2017-10-09T07:43:53.643Z,44.06
2017-10-09T07:45:02.339Z,44.06
2017-10-09T07:46:11.988Z,44.15
2017-10-09T07:47:21.326Z,43.96
2017-10-09T07:48:30.341Z,43.98
2017-10-09T07:49:39.671Z,44.08
2017-10-09T07:50:49.006Z,44.08
2017-10-09T07:51:58.339Z,44.06
2017-10-09T07:53:07.359Z,44.27
2017-10-09T07:54:16.691Z,44.18
2017-10-09T07:55:25.709Z,44.06
2017-10-09T07:56:34.406Z,44.06
2017-10-09T07:57:43.422Z,43.98
2017-10-09T07:58:52.117Z,44.46
2017-10-09T08:00:01.133Z,44.54
2017-10-09T08:01:10.465Z,43.6
2017-10-09T08:02:19.488Z,43.89
2017-10-09T08:03:28.188Z,44.06
2017-10-09T08:04:37.202Z,43.89
2017-10-09T08:05:46.860Z,43.79
2017-10-09T08:06:55.553Z,43.89
2017-10-09T08:08:04.577Z,43.89
2017-10-09T08:09:13.271Z,43.7
2017-10-09T08:10:22.282Z,43.41
2017-10-09T08:11:31.292Z,43.79
2017-10-09T08:12:39.987Z,43.41
2017-10-09T08:13:49.014Z,43.79
2017-10-09T08:14:58.334Z,44.08
2017-10-09T08:16:07.664Z,43.7
2017-10-09T08:17:16.999Z,43.7
2017-10-09T08:18:26.015Z,43.5
2017-10-09T08:19:35.024Z,44.18
2017-10-09T08:20:44.362Z,43.7
2017-10-09T08:21:53.378Z,44.08
2017-10-09T08:23:02.395Z,44.18
2017-10-09T08:24:12.045Z,44.08
2017-10-09T08:25:20.740Z,44.08
2017-10-09T08:26:30.716Z,44.08
2017-10-09T08:27:39.415Z,43.6
2017-10-09T08:28:48.432Z,44.18
2017-10-09T08:29:57.132Z,43.7
2017-10-09T08:31:06.144Z,43.89
2017-10-09T08:32:15.165Z,43.7
2017-10-09T08:33:23.868Z,43.7
2017-10-09T08:34:32.887Z,43.7
2017-10-09T08:35:42.547Z,43.79
2017-10-09T08:36:51.242Z,44.18
2017-10-09T08:37:59.942Z,43.87
2017-10-09T08:39:08.641Z,43.7
2017-10-09T08:40:17.664Z,43.77
2017-10-09T08:41:26.683Z,43.89
2017-10-09T08:42:36.019Z,43.89
2017-10-09T08:43:44.717Z,43.89
2017-10-09T08:44:53.729Z,43.98
2017-10-09T08:46:03.066Z,43.5
2017-10-09T08:47:12.083Z,43.79
2017-10-09T08:48:21.097Z,43.89
2017-10-09T08:49:30.109Z,43.5
2017-10-09T08:50:39.441Z,43.41
2017-10-09T08:51:48.801Z,43.5
2017-10-09T08:52:57.813Z,43.31
2017-10-09T08:54:07.155Z,43.31
2017-10-09T08:55:16.169Z,43.21
2017-10-09T08:56:24.863Z,43.31
2017-10-09T08:57:34.191Z,43.21
2017-10-09T08:58:43.844Z,43.5
2017-10-09T08:59:52.541Z,43.5
2017-10-09T09:01:02.196Z,43.41
2017-10-09T09:02:11.851Z,43.5
2017-10-09T09:03:21.501Z,43.41
2017-10-09T09:04:30.829Z,43.6
2017-10-09T09:05:39.847Z,43.41
2017-10-09T09:06:48.542Z,43.31
2017-10-09T09:07:57.553Z,43.41
2017-10-09T09:09:06.572Z,43.6
2017-10-09T09:10:15.904Z,43.12
2017-10-09T09:11:25.556Z,43.21
2017-10-09T09:12:34.907Z,43.31
2017-10-09T09:13:43.926Z,43.21
2017-10-09T09:14:52.939Z,43.41
2017-10-09T09:16:01.952Z,43.41
2017-10-09T09:17:10.969Z,43.41
2017-10-09T09:18:19.664Z,43.6
2017-10-09T09:19:28.680Z,43.7
2017-10-09T09:20:37.692Z,43.89
2017-10-09T09:21:46.709Z,43.89
2017-10-09T09:22:55.725Z,43.6
2017-10-09T09:24:05.061Z,43.31
2017-10-09T09:25:14.082Z,43.5
2017-10-09T09:26:23.094Z,43.5
2017-10-09T09:27:32.432Z,43.5
2017-10-09T09:28:41.133Z,43.31
2017-10-09T09:29:50.159Z,43.41
2017-10-09T09:30:59.172Z,43.31
2017-10-09T09:32:08.186Z,43.7
2017-10-09T09:33:17.198Z,43.6
2017-10-09T09:34:26.849Z,43.7
2017-10-09T09:35:36.507Z,43.5
2017-10-09T09:36:46.155Z,43.5
2017-10-09T09:37:54.853Z,43.41
2017-10-09T09:39:04.186Z,43.31
2017-10-09T09:40:13.197Z,43.21
2017-10-09T09:41:22.850Z,43.41
2017-10-09T09:42:32.192Z,43.31
2017-10-09T09:43:41.841Z,43.41
2017-10-09T09:44:50.846Z,43.41
2017-10-09T09:45:59.545Z,43.41
2017-10-09T09:47:08.558Z,43.41
2017-10-09T09:48:17.890Z,43.21
2017-10-09T09:49:27.223Z,43.41
2017-10-09T09:50:36.247Z,43.21
2017-10-09T09:51:45.576Z,43.31
2017-10-09T09:52:54.273Z,43.41
2017-10-09T09:54:02.968Z,43.12
2017-10-09T09:55:11.987Z,43.02
2017-10-09T09:56:21.000Z,43.02
2017-10-09T09:57:30.330Z,43.12
2017-10-09T09:58:39.659Z,43.31
2017-10-09T09:59:48.992Z,43.02
2017-10-09T10:00:58.645Z,43.21
2017-10-09T10:02:07.980Z,43.12
2017-10-09T10:03:17.647Z,42.93
2017-10-09T10:04:26.974Z,43.02
2017-10-09T10:05:36.307Z,43.02
2017-10-09T10:06:45.640Z,43.21
2017-10-09T10:07:54.975Z,43.21
2017-10-09T10:09:04.342Z,43.02
2017-10-09T10:10:13.686Z,43.12
2017-10-09T10:11:22.701Z,43.02
2017-10-09T10:12:31.716Z,42.93
2017-10-09T10:13:41.053Z,43.02
2017-10-09T10:14:50.069Z,42.93
2017-10-09T10:15:59.087Z,43.21
2017-10-09T10:17:07.782Z,43.21
2017-10-09T10:18:16.802Z,43.21
2017-10-09T10:19:25.499Z,43.02
2017-10-09T10:20:34.839Z,43.02
2017-10-09T10:21:43.532Z,43.21
2017-10-09T10:22:52.732Z,43.21
2017-10-09T10:24:01.798Z,43.21
2017-10-09T10:25:11.136Z,43.12
2017-10-09T10:26:19.828Z,43.02
2017-10-09T10:27:28.521Z,43.12
2017-10-09T10:28:37.217Z,43.12
2017-10-09T10:29:46.561Z,43.12
2017-10-09T10:30:55.579Z,43.5
2017-10-09T10:32:05.231Z,43.21
2017-10-09T10:33:14.563Z,43.12
2017-10-09T10:34:23.574Z,43.31
2017-10-09T10:35:32.591Z,43.31
2017-10-09T10:36:41.605Z,43.41
2017-10-09T10:37:50.937Z,43.31
2017-10-09T10:38:59.953Z,43.21
2017-10-09T10:40:08.649Z,43.41
2017-10-09T10:41:17.979Z,43.41
2017-10-09T10:42:27.316Z,43.31
2017-10-09T10:43:36.659Z,43.41
2017-10-09T10:44:45.346Z,43.41
2017-10-09T10:45:54.037Z,43.5
2017-10-09T10:47:03.369Z,43.5
2017-10-09T10:48:12.378Z,43.41
2017-10-09T10:49:21.726Z,43.21
2017-10-09T10:50:30.739Z,43.31
2017-10-09T10:51:40.072Z,43.41
2017-10-09T10:52:49.085Z,43.31
2017-10-09T10:53:58.423Z,43.5
2017-10-09T10:55:07.126Z,43.31
2017-10-09T10:56:15.820Z,43.21
2017-10-09T10:57:25.163Z,43.21
2017-10-09T10:58:34.172Z,43.21
2017-10-09T10:59:43.185Z,43.41
2017-10-09T11:00:51.876Z,43.41
2017-10-09T11:02:00.570Z,43.41
2017-10-09T11:03:09.592Z,43.21
2017-10-09T11:04:18.282Z,43.31
2017-10-09T11:05:27.293Z,43.41
2017-10-09T11:06:36.623Z,43.31
2017-10-09T11:07:45.316Z,43.31
2017-10-09T11:08:54.652Z,43.31
2017-10-09T11:10:03.348Z,43.31
2017-10-09T11:11:12.374Z,43.31
2017-10-09T11:12:21.396Z,43.31
2017-10-09T11:13:30.410Z,43.41
2017-10-09T11:14:39.432Z,43.41
2017-10-09T11:15:48.128Z,43.31
2017-10-09T11:16:57.478Z,43.21
2017-10-09T11:18:06.487Z,43.41
2017-10-09T11:19:15.182Z,43.21
2017-10-09T11:20:23.875Z,43.21
2017-10-09T11:21:32.570Z,43.21
2017-10-09T11:22:41.926Z,43.21
2017-10-09T11:23:50.941Z,43.5
2017-10-09T11:24:59.639Z,43.31
2017-10-09T11:26:08.656Z,43.02
2017-10-09T11:27:18.331Z,43.21
2017-10-09T11:28:27.662Z,43.21
2017-10-09T11:29:36.361Z,43.41
2017-10-09T11:30:45.054Z,43.21
2017-10-09T11:31:54.394Z,43.41
2017-10-09T11:33:03.407Z,43.12
2017-10-09T11:34:12.741Z,43.21
2017-10-09T11:35:21.435Z,43.21
2017-10-09T11:36:30.445Z,43.21
2017-10-09T11:37:39.783Z,43.12
2017-10-09T11:38:49.118Z,43.02
2017-10-09T11:39:57.819Z,43.21
2017-10-09T11:41:06.839Z,43.02
2017-10-09T11:42:16.172Z,43.12
2017-10-09T11:43:25.825Z,43.02
2017-10-09T11:44:35.162Z,43.02
2017-10-09T11:45:44.500Z,43.21
2017-10-09T11:46:53.844Z,43.12
2017-10-09T11:48:02.539Z,43.21
2017-10-09T11:49:11.880Z,43.21
2017-10-09T11:50:20.888Z,43.21
2017-10-09T11:51:30.545Z,43.21
2017-10-09T11:52:39.560Z,43.12
2017-10-09T11:53:48.575Z,43.31
2017-10-09T11:54:57.267Z,43.21
2017-10-09T11:56:05.964Z,43.41
2017-10-09T11:57:15.319Z,43.41
2017-10-09T11:58:24.345Z,43.21
2017-10-09T11:59:33.680Z,43.41
2017-10-09T12:00:42.697Z,43.5
2017-10-09T12:01:51.715Z,43.12
2017-10-09T12:03:00.725Z,43.31
2017-10-09T12:04:10.059Z,43.12
2017-10-09T12:05:18.757Z,43.41
2017-10-09T12:06:27.773Z,43.41
2017-10-09T12:07:36.787Z,43.21
2017-10-09T12:08:46.121Z,43.41
2017-10-09T12:09:55.457Z,43.31
2017-10-09T12:11:04.468Z,43.41
2017-10-09T12:12:13.803Z,43.31
2017-10-09T12:13:22.820Z,43.12
2017-10-09T12:14:32.154Z,43.31
2017-10-09T12:15:41.168Z,43.12
2017-10-09T12:16:50.823Z,43.31
2017-10-09T12:17:59.832Z,43.31
2017-10-09T12:19:08.528Z,43.12
2017-10-09T12:20:17.228Z,43.41
2017-10-09T12:21:26.897Z,43.5
2017-10-09T12:22:35.912Z,43.21
2017-10-09T12:23:44.920Z,43.41
2017-10-09T12:24:53.934Z,43.21
2017-10-09T12:26:02.948Z,43.21
2017-10-09T12:27:11.644Z,43.12
2017-10-09T12:28:20.981Z,42.93
2017-10-09T12:29:29.680Z,42.93
2017-10-09T12:30:38.373Z,42.93
2017-10-09T12:31:47.711Z,43.02
2017-10-09T12:32:56.410Z,42.93
2017-10-09T12:34:05.125Z,43.21
2017-10-09T12:35:14.488Z,43.02
2017-10-09T12:36:24.133Z,43.12
2017-10-09T12:37:33.144Z,42.93
2017-10-09T12:38:41.835Z,43.02
2017-10-09T12:39:50.528Z,43.31
2017-10-09T12:40:59.541Z,43.14
2017-10-09T12:42:09.196Z,42.93
2017-10-09T12:43:18.212Z,43.21
2017-10-09T12:44:27.228Z,42.93
2017-10-09T12:45:36.246Z,42.93
2017-10-09T12:46:45.265Z,43.04
2017-10-09T12:47:54.606Z,43.12
2017-10-09T12:49:03.298Z,43.14
2017-10-09T12:50:12.950Z,42.93
2017-10-09T12:51:21.979Z,42.93
2017-10-09T12:52:30.656Z,42.75
2017-10-09T12:53:39.354Z,42.75
2017-10-09T12:54:48.049Z,42.94
2017-10-09T12:55:57.380Z,42.75
2017-10-09T12:57:06.395Z,43.14
2017-10-09T12:58:15.089Z,42.85
2017-10-09T12:59:24.104Z,42.75
2017-10-09T13:00:32.798Z,42.94
2017-10-09T13:01:42.132Z,42.66
2017-10-09T13:02:51.148Z,42.75
2017-10-09T13:04:00.483Z,43.33
2017-10-09T13:05:09.178Z,42.75
2017-10-09T13:06:18.198Z,42.85
2017-10-09T13:07:27.856Z,42.66
2017-10-09T13:08:37.515Z,43.24
2017-10-09T13:09:46.529Z,43.04
2017-10-09T13:10:55.547Z,43.14
2017-10-09T13:12:04.243Z,43.14
2017-10-09T13:13:13.581Z,42.85
2017-10-09T13:14:22.592Z,42.85
2017-10-09T13:15:31.926Z,42.75
2017-10-09T13:16:40.624Z,42.94
2017-10-09T13:17:49.321Z,42.94
2017-10-09T13:18:58.337Z,42.66
2017-10-09T13:20:07.350Z,43.14
2017-10-09T13:21:16.051Z,42.46
2017-10-09T13:22:25.062Z,43.04
2017-10-09T13:23:33.759Z,42.75
2017-10-09T13:24:42.454Z,43.04
2017-10-09T13:25:51.471Z,42.75
2017-10-09T13:27:00.485Z,42.85
2017-10-09T13:28:09.510Z,42.75
2017-10-09T13:29:18.528Z,42.85
2017-10-09T13:30:27.540Z,42.56
2017-10-09T13:31:36.243Z,42.66
2017-10-09T13:32:44.933Z,42.75
2017-10-09T13:33:53.954Z,42.94
2017-10-09T13:35:02.974Z,42.56
2017-10-09T13:36:11.986Z,42.85
2017-10-09T13:37:20.996Z,42.66
2017-10-09T13:38:30.335Z,43.04
2017-10-09T13:39:39.348Z,42.66
2017-10-09T13:40:48.043Z,43.04
2017-10-09T13:41:57.699Z,42.75
2017-10-09T13:43:06.397Z,42.75
2017-10-09T13:44:15.729Z,42.56
2017-10-09T13:45:24.426Z,42.66
2017-10-09T13:46:34.396Z,43.04
2017-10-09T13:47:43.726Z,43.04
2017-10-09T13:48:52.755Z,43.14
2017-10-09T13:50:01.771Z,43.04
2017-10-09T13:51:10.468Z,42.75
2017-10-09T13:52:19.163Z,43.14
2017-10-09T13:53:28.175Z,43.04
2017-10-09T13:54:37.511Z,42.75
2017-10-09T13:55:46.849Z,43.14
2017-10-09T13:56:55.868Z,42.85
2017-10-09T13:58:04.564Z,42.75
2017-10-09T13:59:13.898Z,42.66
2017-10-09T14:00:22.908Z,42.66
2017-10-09T14:01:31.605Z,42.46
2017-10-09T14:02:40.298Z,43.14
2017-10-09T14:03:48.992Z,42.75
2017-10-09T14:04:58.006Z,42.75
2017-10-09T14:06:07.023Z,43.14
2017-10-09T14:07:16.041Z,42.66
2017-10-09T14:08:25.058Z,42.85
2017-10-09T14:09:33.753Z,42.94
2017-10-09T14:10:43.403Z,42.85
2017-10-09T14:11:52.422Z,42.85
2017-10-09T14:13:01.437Z,42.75
2017-10-09T14:14:10.450Z,42.56
2017-10-09T14:15:19.515Z,42.75
2017-10-09T14:16:28.856Z,42.85
2017-10-09T14:17:37.552Z,43.14
2017-10-09T14:18:46.566Z,43.14
2017-10-09T14:19:55.584Z,43.14
2017-10-09T14:21:04.923Z,43.24
2017-10-09T14:22:13.624Z,43.24
2017-10-09T14:23:22.642Z,43.14
2017-10-09T14:24:31.660Z,43.04
2017-10-09T14:25:40.377Z,43.04
2017-10-09T14:26:49.051Z,43.14
2017-10-09T14:27:58.064Z,43.14
2017-10-09T14:29:07.718Z,42.94
2017-10-09T14:30:16.411Z,43.14
2017-10-09T14:40:35.372Z,43.14
2017-10-09T14:41:44.071Z,43.04
2017-10-09T14:42:52.765Z,42.94
2017-10-09T14:44:02.126Z,43.14
2017-10-09T14:45:10.824Z,43.04
2017-10-09T14:46:20.516Z,42.85
2017-10-09T14:47:29.546Z,43.12
2017-10-09T14:48:38.238Z,43.24
2017-10-09T14:49:46.934Z,43.14
2017-10-09T14:50:56.690Z,43.14
2017-10-09T14:52:06.171Z,43.04
2017-10-09T14:53:15.547Z,43.04
2017-10-09T14:54:24.904Z,43.02
2017-10-09T14:55:34.274Z,43.04
2017-10-09T14:56:43.635Z,42.94
2017-10-09T14:57:52.993Z,43.12
2017-10-09T14:59:01.687Z,42.93
2017-10-09T15:00:10.719Z,43.21
2017-10-09T15:01:20.078Z,42.94
2017-10-09T15:02:28.774Z,43.21